Nearby METAR Reports

 

KSJC - San Jose, California, USA
Distance from station: NE 14km
Actualización: 28/03/2020 23:53
Cubierto
Cubierto
 Viento del S
Viento: S 7 km/h
Temperatura: 11°C
Rocío: 9°C
Humedad: 88%
Barómetro: 1020.7 hPa
Clouds: Cubierto
Visibility: 14 km
Cloud details: Few Clouds 30 m
Muy nuboso 1676 m
Cubierto 6096 m
2020/03/29 06:53 KSJC 290653Z 19004KT 9SM FEW001 BKN055 OVC200 11/09 A3014 RMK AO2 SLP206 LAST T01060089
KNUQ - Moffett Nas/Mtn, California, USA
Distance from station: N 14km
Actualización: 21/11/2019 08:56
NOT Current

 
Barómetro: 1011.2 hPa
2019/11/21 16:56 KNUQ 211656Z AUTO A2986 RMK AO2 SLP116 PWINO $
 
KPAO - Palo Alto, California, USA
Distance from station: NNO 23km
Actualización: 28/03/2020 20:47
NOT Current
Cubierto
Cubierto
 Viento del SSO
Viento: SSO 9 km/h
Temperatura: 11°C
Rocío: 8°C
Humedad: 82%
Barómetro: 1021 hPa
Clouds: Cubierto
Visibility: 16 km
Cloud details: Cubierto 1219 m
2020/03/29 03:47 KPAO 290347Z 21005KT 10SM OVC040 11/08 A3015 RMK LAST
KRHV - San Jose/Reid, California, USA
Distance from station: ENE 19km
Actualización: 28/03/2020 21:55
NOT Current
Lluvia débil, Cubierto
Lluvia débil, Cubierto
 Viento del calm
Viento: Calma
Temperatura: 11°C
Rocío: 9°C
Humedad: 88%
Barómetro: 1021.3 hPa
Resumen: Lluvia débil
Clouds: Cubierto
Visibility: 13 km
Cloud details: Parcialmente nuboso 366 m
Muy nuboso 610 m
Cubierto 2743 m
2020/03/29 04:55 KRHV 290455Z 00000KT 8SM -RA SCT012 BKN020 OVC090 11/09 A3016
 
KOAK - Oakland, California, USA
Distance from station: NNO 50km
Actualización: 29/03/2020 00:48
Cubierto
Cubierto
 Viento del S
Viento: S 13 km/h
Temperatura: 13°C
Rocío: 8°C
Humedad: 72%
Barómetro: 1020.7 hPa
Clouds: Cubierto
Visibility: 16 km
Cloud details: Few Clouds 427 m
Muy nuboso 792 m
Cubierto 1006 m
2020/03/29 07:48 KOAK 290748Z 18007KT 10SM FEW014 BKN026 OVC033 13/08 A3014 RMK AO2 $
KSQL - San Carlos Airpo, California, USA
Distance from station: NO 34km
Actualización: 29/03/2020 00:35
Cubierto
Cubierto
 Viento del S
Viento: S 6 km/h
Temperatura: 10°C
Rocío: 9°C
Humedad: 94%
Barómetro: 1021 hPa
Clouds: Cubierto
Visibility: 16 km
Cloud details: Parcialmente nuboso 823 m
Cubierto 1006 m
2020/03/29 07:35 KSQL 290735Z AUTO 18003KT 10SM SCT027 OVC033 10/09 A3015 RMK AO2
 
KSFO - San Francisco, California, USA
Distance from station: NO 49km
Actualización: 28/03/2020 23:56
Cubierto
Cubierto
 Viento del SSE
Viento: SSE 9 km/h
Temperatura: 12°C
Rocío: 8°C
Humedad: 77%
Barómetro: 1020.7 hPa
Clouds: Cubierto
Visibility: 16 km
Cloud details: Few Clouds 914 m
Muy nuboso 1158 m
Cubierto 1402 m
2020/03/29 06:56 KSFO 290656Z 15005KT 10SM FEW030 BKN038 OVC046 12/08 A3014 RMK AO2 SLP204 T01220078
KE16 - San Martin, California, USA
Distance from station: ESE 43km
Actualización: 14/11/2019 01:35
NOT Current
Cubierto
Cubierto
 Viento del SE
Viento: SE 11 km/h
Temperatura: 12°C
Rocío: 10°C
Humedad: 88%
Barómetro: 1017.6 hPa
Clouds: Cubierto
Visibility: 16 km
Cloud details: Cubierto 427 m
2019/11/14 09:35 KE16 140935Z AUTO 13006KT 10SM OVC014 12/10 A3005 RMK AO2
 
KWVI - Watsonville, California, USA
Distance from station: SSE 44km
Actualización: 29/03/2020 00:41
Cubierto
Cubierto
 Viento del calm
Viento: Calma
Temperatura: 10°C
Rocío: 8°C
Humedad: 88%
Barómetro: 1021 hPa
Clouds: Cubierto
Visibility: 16 km
Cloud details: Muy nuboso 579 m
Cubierto 1372 m
2020/03/29 07:41 KWVI 290741Z AUTO 00000KT 10SM BKN019 OVC045 10/08 A3015 RMK AO2 T01000083
KHAF - Half Moon Bay, California, USA
Distance from station: ONO 50km
Actualización: 29/03/2020 00:40
Cubierto
Cubierto
 Viento del SE
Viento: SE 7 km/h
Temperatura: 10°C
Wind Chill: 9°C
Rocío: 9°C
Humedad: 94%
Barómetro: 1021 hPa
Clouds: Cubierto
Visibility: 14 km
Cloud details: Muy nuboso 335 m
Muy nuboso 518 m
Cubierto 792 m
2020/03/29 07:40 KHAF 290740Z AUTO 13004KT 9SM BKN011 BKN017 OVC026 10/09 A3015 RMK AO2
 
KHWD - Hayward, California, USA
Distance from station: N 44km
Actualización: 28/03/2020 23:54
Cubierto
Cubierto
 Viento del SSE
Viento: SSE 6 km/h
Temperatura: 11°C
Rocío: 8°C
Humedad: 82%
Barómetro: 1020.7 hPa
Clouds: Cubierto
Visibility: 16 km
Cloud details: Parcialmente nuboso 1036 m
Muy nuboso 1280 m
Cubierto 1524 m
2020/03/29 06:54 KHWD 290654Z 15003KT 10SM SCT034 BKN042 OVC050 11/08 A3014 RMK AO2 SLP215 T01110078
KLVK - Livermore, California, USA
Distance from station: NNE 51km
Actualización: 28/03/2020 23:53
Muy nuboso
Muy nuboso
 Viento del calm
Viento: Calma
Temperatura: 9°C
Rocío: 8°C
Humedad: 94%
Barómetro: 1020.3 hPa
Clouds: Muy nuboso
Visibility: 11 km
Cloud details: Muy nuboso 3048 m
Muy nuboso 3658 m
2020/03/29 06:53 KLVK 290653Z AUTO 00000KT 7SM BKN100 BKN120 09/08 A3013 RMK AO2 SLP203 T00940083